Grove City (29D)
Grove City, PA
Field Elevation: 1371
Lat: 41°08.00N  Long: 80°10.00W
CTAF/Unicom Freq: 122.7000
   
     For Weather-by-Phone, call 724 748-3504
Weather Advisories
4/24/2014 05:46 Z
Altimeter 30.10" Hg
Wind 310° @ 5 KT
Gusts --
Visibility 10 SM
Temperature 1° C (34° F)
Dewpoint -11° C (12° F)
Relative Humidity 41%
Density Altitude --
Condensation Altitude 7,200 feet
Wind Chill -2° C (28° F)
  Wind and Runways
Indicated Runway = 28
History
 
 
More Info
All DigiWx sites map
NOAA Forecast
 
Airport IQ 5010
(LHV) Lock Haven
(74PN) Altoona Regional
 
about DigiWx
 
FAA Disclaimer: The data displayed is for advisory purposes only and is not to be used for flight planning or operations. For official data, please call 724 748-3504 to hear the current automated AWOS voice message.
  METAR 29D 240546Z AUTO 31005KT 10SM 01/M11 A3010